Time;durP1;ratioP1;P1;durP2;ratioP2;P2;SDS_P1;SDS_P2;PMS_P1;PMS_P2;Temp;Humidity;BMP_temperature;BMP_pressure;BME280_temperature;BME280_humidity;BME280_pressure;Samples;Min_cycle;Max_cycle;Signal;HPM_P1;HPM_P2
2022/02/14 00:02:07;;;;;;;8.02;3.58;;;6.50;70.60;;;;;;5056217;28;20025;-76
2022/02/14 00:04:33;;;;;;;6.70;4.13;;;6.50;70.80;;;;;;5055532;28;20174;-76
2022/02/14 00:06:58;;;;;;;7.65;3.33;;;6.40;71.00;;;;;;5054094;28;20462;-76
2022/02/14 00:09:24;;;;;;;5.88;2.97;;;6.40;70.80;;;;;;5054369;28;20041;-73
2022/02/14 00:11:50;;;;;;;7.22;2.97;;;6.50;70.20;;;;;;5055849;28;20108;-76
2022/02/14 00:14:15;;;;;;;8.13;3.20;;;6.50;70.20;;;;;;5056157;28;20461;-77
2022/02/14 00:16:41;;;;;;;6.32;3.10;;;6.60;69.40;;;;;;5055794;28;20760;-76
2022/02/14 00:19:06;;;;;;;7.45;3.63;;;6.60;69.50;;;;;;5056107;28;20381;-77
2022/02/14 00:21:32;;;;;;;4.72;2.83;;;6.60;69.30;;;;;;5055571;28;20221;-76
2022/02/14 00:23:58;;;;;;;6.68;3.10;;;6.70;69.00;;;;;;5053240;28;20025;-76
2022/02/14 00:26:24;;;;;;;3.90;2.58;;;6.70;68.90;;;;;;5053051;28;20017;-73
2022/02/14 00:28:50;;;;;;;12.95;3.08;;;6.80;68.50;;;;;;5052511;28;20029;-77
2022/02/14 00:31:16;;;;;;;6.38;3.10;;;6.80;68.30;;;;;;5052679;28;20029;-76
2022/02/14 00:33:41;;;;;;;4.70;2.90;;;6.80;68.20;;;;;;5052069;28;20049;-75
2022/02/14 00:36:07;;;;;;;7.60;3.10;;;6.90;67.60;;;;;;5054495;28;20060;-77
2022/02/14 00:38:33;;;;;;;3.10;2.78;;;7.00;66.70;;;;;;5053578;28;20033;-76
2022/02/14 00:40:58;;;;;;;7.07;3.20;;;7.10;66.30;;;;;;5053518;28;20074;-75
2022/02/14 00:43:24;;;;;;;5.78;2.75;;;7.10;66.90;;;;;;5053905;28;20058;-72
2022/02/14 00:45:50;;;;;;;5.97;2.92;;;7.10;66.40;;;;;;5053716;28;20091;-75
2022/02/14 00:48:16;;;;;;;6.80;2.97;;;7.00;66.40;;;;;;5054099;28;20033;-75
2022/02/14 00:50:42;;;;;;;4.22;2.13;;;7.00;65.90;;;;;;5052750;28;20037;-75
2022/02/14 00:53:08;;;;;;;6.30;2.83;;;7.10;65.60;;;;;;5053552;28;20382;-75
2022/02/14 00:55:34;;;;;;;4.60;2.20;;;7.10;65.10;;;;;;5053077;28;20398;-75
2022/02/14 00:58:00;;;;;;;6.65;2.67;;;7.20;64.60;;;;;;5053891;28;20058;-76
2022/02/14 01:00:26;;;;;;;7.18;2.63;;;7.10;64.60;;;;;;5053983;28;20108;-72
2022/02/14 01:02:52;;;;;;;5.13;2.60;;;7.20;64.10;;;;;;5054310;28;20021;-75
2022/02/14 01:05:18;;;;;;;3.80;2.42;;;7.10;64.10;;;;;;5052474;28;20120;-75
2022/02/14 01:07:44;;;;;;;5.35;2.45;;;7.10;63.90;;;;;;5050730;28;20280;-74
2022/02/14 01:10:11;;;;;;;6.13;2.85;;;7.10;63.70;;;;;;5053083;28;20090;-75
2022/02/14 01:12:38;;;;;;;5.75;2.25;;;7.10;63.00;;;;;;5053279;28;20037;-75
2022/02/14 01:15:05;;;;;;;4.47;2.28;;;7.10;62.40;;;;;;5053299;28;20095;-74
2022/02/14 01:17:36;;;;;;;6.13;2.80;;;7.10;63.00;;;;;;5052229;28;20044;-73
2022/02/14 01:20:04;;;;;;;4.82;2.47;;;7.20;62.20;;;;;;5053330;28;20025;-72
2022/02/14 01:22:30;;;;;;;7.65;2.38;;;7.20;62.90;;;;;;5048710;28;20025;-73
2022/02/14 01:24:56;;;;;;;5.28;2.42;;;7.10;62.40;;;;;;5053227;28;20390;-75
2022/02/14 01:27:21;;;;;;;4.70;2.17;;;7.10;61.80;;;;;;5053264;28;20029;-74
2022/02/14 01:29:47;;;;;;;4.68;2.55;;;7.10;61.40;;;;;;5052339;28;20036;-74
2022/02/14 01:32:13;;;;;;;3.67;1.98;;;7.10;61.50;;;;;;5053479;28;20031;-74
2022/02/14 01:34:38;;;;;;;5.28;2.33;;;7.10;61.90;;;;;;5051900;28;20029;-74
2022/02/14 01:37:05;;;;;;;4.20;2.10;;;7.10;61.00;;;;;;5053761;28;20099;-74
2022/02/14 01:39:31;;;;;;;5.38;2.20;;;7.10;60.90;;;;;;5052145;28;20470;-74
2022/02/14 01:41:57;;;;;;;4.75;2.10;;;7.00;60.70;;;;;;5053344;28;20028;-74
2022/02/14 01:44:44;;;;;;;4.32;2.60;;;7.10;60.60;;;;;;5051815;28;20029;-74
2022/02/14 01:47:12;;;;;;;3.67;2.42;;;7.10;60.10;;;;;;5053211;28;20028;-75
2022/02/14 01:49:39;;;;;;;3.35;2.13;;;7.10;60.30;;;;;;5052450;28;20033;-75
2022/02/14 01:52:06;;;;;;;5.18;2.03;;;7.10;60.00;;;;;;5051615;28;20024;-74
2022/02/14 01:54:35;;;;;;;3.70;2.38;;;7.10;59.90;;;;;;5052050;28;20382;-74
2022/02/14 01:57:01;;;;;;;5.35;2.42;;;7.10;61.30;;;;;;5052732;28;20398;-75
2022/02/14 01:59:27;;;;;;;4.07;2.35;;;7.00;61.80;;;;;;5052572;28;20059;-71
2022/02/14 02:01:53;;;;;;;3.03;2.08;;;6.90;62.40;;;;;;5051728;28;20036;-74
2022/02/14 02:04:19;;;;;;;5.03;2.40;;;6.90;62.50;;;;;;5051221;28;20029;-74
2022/02/14 02:06:44;;;;;;;4.28;2.00;;;6.80;63.70;;;;;;5051946;28;20028;-74
2022/02/14 02:09:10;;;;;;;6.53;2.20;;;6.80;61.40;;;;;;5034170;28;20037;-74
2022/02/14 02:14:24;;;;;;;8.00;1.98;;;6.80;59.50;;;;;;5032918;28;20044;-75
2022/02/14 02:16:50;;;;;;;4.38;2.03;;;6.80;59.20;;;;;;5031877;28;20438;-74
2022/02/14 02:19:16;;;;;;;3.70;2.45;;;6.90;59.60;;;;;;5032639;28;20045;-74
2022/02/14 02:21:49;;;;;;;5.65;2.30;;;6.90;59.60;;;;;;5036371;28;20450;-74
2022/02/14 02:24:19;;;;;;;4.03;2.20;;;6.90;59.30;;;;;;5039637;28;20025;-75
2022/02/14 02:26:57;;;;;;;3.28;1.88;;;6.90;59.20;;;;;;5051275;28;20056;-75
2022/02/14 02:29:23;;;;;;;2.88;2.03;;;6.90;59.00;;;;;;5051906;28;20067;-75
2022/02/14 02:31:49;;;;;;;3.00;2.10;;;6.90;59.90;;;;;;5046161;28;20029;-74
2022/02/14 02:34:15;;;;;;;4.18;1.92;;;6.90;58.70;;;;;;5032996;28;20160;-74
2022/02/14 02:36:56;;;;;;;3.70;1.90;;;7.00;58.30;;;;;;5032108;28;20025;-74
2022/02/14 02:39:23;;;;;;;6.03;2.33;;;6.90;58.80;;;;;;5044807;28;20029;-74
2022/02/14 02:41:49;;;;;;;4.60;1.80;;;6.90;58.30;;;;;;5051917;28;20111;-74
2022/02/14 02:44:16;;;;;;;6.97;1.70;;;6.90;58.40;;;;;;5052343;28;20159;-75
2022/02/14 02:46:42;;;;;;;2.33;1.65;;;6.90;58.10;;;;;;5051402;28;20036;-75
2022/02/14 02:49:22;;;;;;;5.28;2.53;;;7.00;58.50;;;;;;5051370;28;20033;-74
2022/02/14 02:51:50;;;;;;;5.18;2.45;;;7.00;61.10;;;;;;5036500;28;20532;-75
2022/02/14 02:54:16;;;;;;;3.20;2.50;;;7.00;62.00;;;;;;5032549;28;20104;-75
2022/02/14 02:56:44;;;;;;;4.85;2.33;;;7.00;63.00;;;;;;5031535;28;20046;-75
2022/02/14 02:59:10;;;;;;;4.63;2.28;;;6.80;62.10;;;;;;5049537;28;20029;-75
2022/02/14 03:01:37;;;;;;;2.97;2.35;;;6.70;63.10;;;;;;5051970;28;20373;-75
2022/02/14 03:04:04;;;;;;;5.60;2.85;;;6.70;64.10;;;;;;5032931;28;20033;-74
2022/02/14 03:06:30;;;;;;;8.98;2.83;;;6.50;64.30;;;;;;5031331;28;20383;-75
2022/02/14 03:08:56;;;;;;;8.50;2.40;;;6.40;66.20;;;;;;5049889;28;20043;-75
2022/02/14 03:11:22;;;;;;;4.78;2.00;;;6.30;65.20;;;;;;5052200;28;20039;-75
2022/02/14 03:13:49;;;;;;;5.35;2.70;;;6.20;64.30;;;;;;5032798;28;20044;-74
2022/02/14 03:16:15;;;;;;;6.95;2.85;;;6.10;66.50;;;;;;5041406;28;20498;-75
2022/02/14 03:18:41;;;;;;;9.65;2.42;;;6.00;67.80;;;;;;5051145;28;20044;-74
2022/02/14 03:21:08;;;;;;;3.28;2.05;;;5.90;65.80;;;;;;5052021;28;20420;-75
2022/02/14 03:23:34;;;;;;;7.10;2.13;;;5.90;67.80;;;;;;5034769;28;20073;-74
2022/02/14 03:26:00;;;;;;;5.20;2.58;;;5.80;65.40;;;;;;5039355;28;20056;-75
2022/02/14 03:28:26;;;;;;;4.90;2.80;;;5.70;68.00;;;;;;5051996;28;20036;-74
2022/02/14 03:30:52;;;;;;;2.88;1.90;;;5.60;68.40;;;;;;5051032;28;20455;-74
2022/02/14 03:33:18;;;;;;;7.22;2.40;;;5.70;65.40;;;;;;5051478;28;20098;-74
2022/02/14 03:35:43;;;;;;;5.35;2.70;;;5.60;68.40;;;;;;5035812;28;20034;-75
2022/02/14 03:38:09;;;;;;;3.67;2.13;;;5.60;68.00;;;;;;5032142;28;20109;-75
2022/02/14 03:40:36;;;;;;;3.92;2.22;;;5.60;67.40;;;;;;5030974;28;20037;-74
2022/02/14 03:43:03;;;;;;;6.32;1.52;;;5.60;65.80;;;;;;5042062;28;20032;-74
2022/02/14 03:45:30;;;;;;;8.50;2.42;;;5.70;63.90;;;;;;5051828;28;20462;-74
2022/02/14 03:47:57;;;;;;;8.43;2.65;;;5.80;67.50;;;;;;5050865;28;20060;-74
2022/02/14 03:50:23;;;;;;;5.47;2.30;;;5.80;67.00;;;;;;5051824;28;20029;-74
2022/02/14 03:52:48;;;;;;;4.65;2.60;;;5.80;66.90;;;;;;5041211;28;20030;-74
2022/02/14 03:55:14;;;;;;;5.65;2.47;;;5.70;67.20;;;;;;5036386;28;20032;-74
2022/02/14 03:57:41;;;;;;;5.38;2.58;;;5.70;67.30;;;;;;5042418;28;20053;-74
2022/02/14 04:00:10;;;;;;;4.57;2.38;;;5.60;68.70;;;;;;5036135;28;20057;-74
2022/02/14 04:02:37;;;;;;;5.85;2.72;;;5.40;69.60;;;;;;5034862;28;20180;-74
2022/02/14 04:05:03;;;;;;;6.97;2.50;;;5.40;70.60;;;;;;5034531;28;20030;-74
2022/02/14 04:07:29;;;;;;;4.45;2.70;;;5.20;70.50;;;;;;5034921;28;20462;-75
2022/02/14 04:09:55;;;;;;;6.38;2.80;;;5.00;71.80;;;;;;5034782;28;20116;-75
2022/02/14 04:12:21;;;;;;;5.20;2.88;;;4.80;74.50;;;;;;5053829;28;20543;-75
2022/02/14 04:14:47;;;;;;;4.97;2.45;;;4.80;75.30;;;;;;5055045;28;20029;-75
2022/02/14 04:17:13;;;;;;;9.57;3.28;;;4.60;77.70;;;;;;5054986;28;20525;-74
2022/02/14 04:19:38;;;;;;;7.95;3.15;;;4.40;77.00;;;;;;5043619;28;20041;-74
2022/02/14 04:22:04;;;;;;;5.25;2.63;;;4.30;79.40;;;;;;5035121;28;20474;-74
2022/02/14 04:24:30;;;;;;;6.55;3.20;;;4.10;81.10;;;;;;5053513;28;20033;-74
2022/02/14 04:26:56;;;;;;;5.53;2.53;;;3.90;83.40;;;;;;5054890;28;20079;-73
2022/02/14 04:29:22;;;;;;;6.30;2.92;;;3.80;86.20;;;;;;5054701;28;20064;-74
2022/02/14 04:31:47;;;;;;;6.55;2.78;;;3.60;88.40;;;;;;5054274;28;20029;-74
2022/02/14 04:34:14;;;;;;;6.72;2.70;;;3.50;90.70;;;;;;5054993;28;20377;-74
2022/02/14 04:36:40;;;;;;;5.25;2.33;;;3.40;91.30;;;;;;5035395;28;20036;-73
2022/02/14 04:39:06;;;;;;;7.65;2.95;;;3.20;91.90;;;;;;5044226;28;20029;-73
2022/02/14 04:41:31;;;;;;;6.20;2.78;;;3.20;92.30;;;;;;5036296;28;20112;-74
2022/02/14 04:43:57;;;;;;;6.18;2.60;;;3.20;91.20;;;;;;5048045;28;20458;-73
2022/02/14 04:46:22;;;;;;;7.18;3.00;;;3.10;92.30;;;;;;5054038;28;20033;-74
2022/02/14 04:48:48;;;;;;;5.28;2.65;;;3.00;93.30;;;;;;5034632;28;20467;-74
2022/02/14 04:51:14;;;;;;;6.85;3.17;;;3.00;94.00;;;;;;5034604;28;20030;-74
2022/02/14 04:53:39;;;;;;;4.80;2.20;;;2.90;94.80;;;;;;5033943;28;20425;-74
2022/02/14 04:56:05;;;;;;;6.07;2.80;;;2.80;95.70;;;;;;5034301;28;20072;-73
2022/02/14 04:58:30;;;;;;;4.85;2.88;;;2.70;97.00;;;;;;5034429;28;20566;-74
2022/02/14 05:00:57;;;;;;;6.43;2.60;;;2.60;98.00;;;;;;5052396;28;20049;-75
2022/02/14 05:03:23;;;;;;;7.45;2.90;;;2.70;99.90;;;;;;5054265;28;20032;-74
2022/02/14 05:05:48;;;;;;;6.70;3.03;;;2.60;99.90;;;;;;5054030;28;20523;-75
2022/02/14 05:08:14;;;;;;;10.63;3.40;;;2.70;99.90;;;;;;5052552;28;20044;-75
2022/02/14 05:10:40;;;;;;;5.32;2.88;;;2.70;99.90;;;;;;5051147;28;20075;-74
2022/02/14 05:13:05;;;;;;;8.55;3.22;;;2.80;99.90;;;;;;5034230;28;20022;-75
2022/02/14 05:15:31;;;;;;;5.28;2.85;;;2.80;99.90;;;;;;5034492;28;20084;-75
2022/02/14 05:17:56;;;;;;;6.38;2.42;;;2.80;99.90;;;;;;5033360;28;20459;-75
2022/02/14 05:20:22;;;;;;;5.93;2.58;;;2.70;99.90;;;;;;5034448;28;20090;-75
2022/02/14 05:22:48;;;;;;;5.85;2.95;;;2.70;99.90;;;;;;5035354;28;20183;-74
2022/02/14 05:25:13;;;;;;;10.07;2.95;;;2.70;99.90;;;;;;5053306;28;20521;-75
2022/02/14 05:27:39;;;;;;;4.55;2.60;;;2.60;99.90;;;;;;5053077;28;20037;-75
2022/02/14 05:30:06;;;;;;;7.82;3.00;;;2.60;99.90;;;;;;5053525;28;20466;-75
2022/02/14 05:32:32;;;;;;;7.03;3.15;;;2.60;99.90;;;;;;5052618;28;20394;-74
2022/02/14 05:34:58;;;;;;;6.97;3.03;;;2.60;99.90;;;;;;5052822;28;20466;-75
2022/02/14 05:37:24;;;;;;;9.85;3.33;;;2.80;99.90;;;;;;5053859;28;20095;-76
2022/02/14 05:39:50;;;;;;;6.75;3.38;;;2.80;99.90;;;;;;5052811;28;20378;-75
2022/02/14 05:42:16;;;;;;;9.00;3.65;;;2.80;99.90;;;;;;5053601;28;20028;-76
2022/02/14 05:44:43;;;;;;;11.88;5.78;;;2.80;99.90;;;;;;5052468;28;20417;-75
2022/02/14 05:47:09;;;;;;;8.65;4.47;;;2.80;99.90;;;;;;5052707;28;20389;-76
2022/02/14 05:49:35;;;;;;;8.65;4.53;;;2.70;99.90;;;;;;5052579;28;20041;-72
2022/02/14 05:52:01;;;;;;;20.30;6.30;;;2.60;99.90;;;;;;5053420;28;20450;-76
2022/02/14 05:54:26;;;;;;;15.80;6.07;;;2.60;99.90;;;;;;5053240;28;20043;-76
2022/02/14 05:56:52;;;;;;;14.27;4.60;;;2.60;99.90;;;;;;5052344;28;20371;-75
2022/02/14 05:59:18;;;;;;;9.63;4.07;;;2.50;99.90;;;;;;5053380;28;20059;-75
2022/02/14 06:01:43;;;;;;;11.10;5.15;;;2.60;99.90;;;;;;5052280;28;20385;-76
2022/02/14 06:04:09;;;;;;;7.20;4.32;;;2.60;99.90;;;;;;5053074;28;20029;-76
2022/02/14 06:06:35;;;;;;;9.13;4.57;;;2.60;99.90;;;;;;5052896;28;20055;-71
2022/02/14 06:09:01;;;;;;;7.25;3.20;;;2.50;99.90;;;;;;5052410;28;20043;-75
2022/02/14 06:11:26;;;;;;;7.22;3.00;;;2.50;99.90;;;;;;5052430;28;20021;-74
2022/02/14 06:13:52;;;;;;;8.50;3.67;;;2.60;99.90;;;;;;5051354;28;20037;-74
2022/02/14 06:16:18;;;;;;;8.95;3.63;;;2.70;99.90;;;;;;5052195;28;20112;-75
2022/02/14 06:18:43;;;;;;;10.25;3.17;;;2.70;99.90;;;;;;5052405;28;20462;-74
2022/02/14 06:21:10;;;;;;;10.45;3.70;;;2.80;99.90;;;;;;5051516;28;20032;-75
2022/02/14 06:23:36;;;;;;;8.32;3.35;;;2.90;99.90;;;;;;5052682;28;20163;-72
2022/02/14 06:26:04;;;;;;;7.25;2.80;;;3.00;99.90;;;;;;5051132;28;20103;-75
2022/02/14 06:28:30;;;;;;;7.82;3.20;;;3.10;99.90;;;;;;5052538;28;20029;-75
2022/02/14 06:30:56;;;;;;;8.40;3.13;;;3.00;99.90;;;;;;5051307;28;20081;-75
2022/02/14 06:33:22;;;;;;;6.43;2.65;;;3.10;99.90;;;;;;5052120;28;20029;-75
2022/02/14 06:35:47;;;;;;;11.00;2.85;;;3.20;99.90;;;;;;5051426;28;20021;-72
2022/02/14 06:38:13;;;;;;;7.88;2.60;;;3.20;99.10;;;;;;5052021;28;20043;-75
2022/02/14 06:40:38;;;;;;;6.80;2.83;;;3.40;98.80;;;;;;5051369;28;20520;-72
2022/02/14 06:43:04;;;;;;;7.65;2.67;;;3.40;98.60;;;;;;5051695;28;20074;-74
2022/02/14 06:45:30;;;;;;;6.13;2.67;;;3.40;99.90;;;;;;5051787;28;20488;-75
2022/02/14 06:47:56;;;;;;;6.20;2.65;;;3.40;98.50;;;;;;5051247;28;20120;-74
2022/02/14 06:50:21;;;;;;;8.57;3.05;;;3.30;99.20;;;;;;5050090;28;20098;-74
2022/02/14 06:52:47;;;;;;;8.70;3.17;;;3.40;98.50;;;;;;5051311;28;20024;-73
2022/02/14 06:55:13;;;;;;;6.13;2.83;;;3.40;98.50;;;;;;5051820;28;20052;-77
2022/02/14 06:57:39;;;;;;;8.10;3.10;;;3.30;99.20;;;;;;5051120;28;20052;-75
2022/02/14 07:00:10;;;;;;;7.78;2.92;;;3.20;99.90;;;;;;5051919;28;20029;-75
2022/02/14 07:02:36;;;;;;;7.72;2.65;;;3.20;99.90;;;;;;5051879;28;20021;-73
2022/02/14 07:05:02;;;;;;;7.88;2.88;;;3.20;99.90;;;;;;5049662;28;20036;-73
2022/02/14 07:07:27;;;;;;;7.30;3.15;;;3.20;99.90;;;;;;5047695;28;20021;-72
2022/02/14 07:09:53;;;;;;;8.65;2.85;;;3.10;99.90;;;;;;5051780;28;20115;-72
2022/02/14 07:12:18;;;;;;;11.10;3.63;;;3.00;99.90;;;;;;5052453;28;21769;-72
2022/02/14 07:14:44;;;;;;;6.05;3.25;;;2.90;99.90;;;;;;5051170;28;20025;-72
2022/02/14 07:17:11;;;;;;;8.68;3.35;;;2.80;99.90;;;;;;5051450;28;20496;-72
2022/02/14 07:19:38;;;;;;;12.57;3.30;;;2.80;99.90;;;;;;5051559;28;20390;-77
2022/02/14 07:22:05;;;;;;;8.18;3.72;;;2.80;99.90;;;;;;5051530;28;20095;-83
2022/02/14 07:24:31;;;;;;;14.70;3.38;;;2.80;99.90;;;;;;5052422;28;20115;-81
2022/02/14 07:26:57;;;;;;;7.80;3.50;;;2.70;99.90;;;;;;5053725;28;20052;-80
2022/02/14 07:29:22;;;;;;;8.20;3.47;;;2.70;99.90;;;;;;5054993;28;20040;-73
2022/02/14 07:31:48;;;;;;;12.35;4.35;;;2.70;99.90;;;;;;5051054;28;20025;-75
2022/02/14 07:34:13;;;;;;;10.70;3.70;;;2.70;99.90;;;;;;5056213;28;20362;-87
2022/02/14 07:36:39;;;;;;;12.25;3.70;;;2.70;99.90;;;;;;5055693;28;20033;-86
2022/02/14 07:39:05;;;;;;;14.55;3.90;;;2.70;99.90;;;;;;5046620;28;20112;-87
2022/02/14 07:41:32;;;;;;;9.70;4.55;;;2.80;99.90;;;;;;5056501;28;20449;-88
2022/02/14 07:43:58;;;;;;;10.25;4.38;;;2.80;99.90;;;;;;5055646;28;20095;-76
2022/02/14 07:46:23;;;;;;;7.88;3.60;;;2.80;99.90;;;;;;5050618;28;20458;-76
2022/02/14 07:48:49;;;;;;;18.92;3.92;;;2.90;99.90;;;;;;5054433;28;20466;-77
2022/02/14 07:51:16;;;;;;;10.10;4.68;;;3.00;99.90;;;;;;5055061;28;20462;-76
2022/02/14 07:53:43;;;;;;;7.63;3.72;;;3.10;99.90;;;;;;5055247;28;20052;-76
2022/02/14 07:56:12;;;;;;;11.77;4.57;;;3.10;99.90;;;;;;5054725;28;20029;-77
2022/02/14 07:58:39;;;;;;;12.90;5.40;;;3.20;99.90;;;;;;5054370;28;20035;-77
2022/02/14 08:01:05;;;;;;;16.25;6.00;;;3.30;99.90;;;;;;5054895;28;20103;-78
2022/02/14 08:03:31;;;;;;;17.08;5.47;;;3.40;99.90;;;;;;5049355;28;20405;-76
2022/02/14 08:05:57;;;;;;;9.73;4.10;;;3.50;99.90;;;;;;5053814;28;20032;-77
2022/02/14 08:08:23;;;;;;;13.13;5.18;;;3.60;99.90;;;;;;5053589;28;20056;-74
2022/02/14 08:10:48;;;;;;;11.80;5.00;;;3.70;99.90;;;;;;5053352;28;20462;-74
2022/02/14 08:13:14;;;;;;;8.73;4.00;;;3.80;99.90;;;;;;5054215;28;20454;-74
2022/02/14 08:15:40;;;;;;;10.05;4.68;;;4.00;99.90;;;;;;5054582;28;20112;-71
2022/02/14 08:18:08;;;;;;;11.15;4.03;;;4.10;99.90;;;;;;5053006;28;20029;-75
2022/02/14 08:20:34;;;;;;;8.80;4.13;;;4.30;99.90;;;;;;5054766;28;20466;-75
2022/02/14 08:23:00;;;;;;;7.25;3.42;;;4.40;99.90;;;;;;5054047;28;20023;-75
2022/02/14 08:25:26;;;;;;;8.48;2.85;;;4.50;99.90;;;;;;5054907;28;20029;-75
2022/02/14 08:27:52;;;;;;;10.65;3.78;;;4.70;98.70;;;;;;5054314;28;20051;-74
2022/02/14 08:30:18;;;;;;;8.98;3.30;;;4.80;97.40;;;;;;5052952;28;20032;-77
2022/02/14 08:32:44;;;;;;;6.43;2.50;;;5.00;94.40;;;;;;5053250;28;20071;-74
2022/02/14 08:35:11;;;;;;;11.63;3.05;;;5.20;94.70;;;;;;5054623;28;20025;-74
2022/02/14 08:37:37;;;;;;;12.98;3.60;;;5.30;94.10;;;;;;5054305;28;20434;-75
2022/02/14 08:40:03;;;;;;;13.70;3.92;;;5.40;93.80;;;;;;5053675;28;20029;-75
2022/02/14 08:42:29;;;;;;;9.13;3.70;;;5.60;92.00;;;;;;5052853;28;20048;-75
2022/02/14 08:44:56;;;;;;;12.13;3.80;;;5.70;83.10;;;;;;5052847;28;20021;-76
2022/02/14 08:47:21;;;;;;;18.65;4.22;;;5.80;82.50;;;;;;5048676;28;20033;-76
2022/02/14 08:49:47;;;;;;;13.40;4.05;;;6.10;80.20;;;;;;5053115;28;20040;-75
2022/02/14 08:52:13;;;;;;;11.98;4.63;;;6.10;79.50;;;;;;5054083;28;20065;-76
2022/02/14 08:54:39;;;;;;;10.10;3.72;;;6.20;78.90;;;;;;5054248;28;20053;-75
2022/02/14 08:57:05;;;;;;;8.90;3.40;;;6.40;77.60;;;;;;5053402;28;20076;-76
2022/02/14 08:59:30;;;;;;;13.80;3.78;;;6.40;76.90;;;;;;5054175;28;20374;-76
2022/02/14 09:01:59;;;;;;;11.23;3.42;;;6.60;74.70;;;;;;5053685;28;20080;-75
2022/02/14 09:04:25;;;;;;;12.27;4.10;;;6.80;75.00;;;;;;5054766;28;20445;-75
2022/02/14 09:06:51;;;;;;;13.02;4.57;;;7.00;73.70;;;;;;5053544;28;20057;-74
2022/02/14 09:09:16;;;;;;;12.30;3.97;;;7.30;75.50;;;;;;5054561;28;20076;-75
2022/02/14 09:11:42;;;;;;;8.48;3.72;;;7.60;77.30;;;;;;5054077;28;20382;-74
2022/02/14 09:14:08;;;;;;;9.30;4.00;;;7.80;73.20;;;;;;5053859;28;20078;-75
2022/02/14 09:16:34;;;;;;;15.52;4.05;;;8.00;72.10;;;;;;5052760;28;20406;-74
2022/02/14 09:19:00;;;;;;;10.25;3.58;;;8.30;68.80;;;;;;5053147;28;20036;-75
2022/02/14 09:21:25;;;;;;;10.55;3.50;;;8.90;64.90;;;;;;5053125;28;20033;-75
2022/02/14 09:23:51;;;;;;;12.07;3.03;;;9.20;64.90;;;;;;5053536;28;20031;-75
2022/02/14 09:26:17;;;;;;;7.32;2.58;;;9.40;63.60;;;;;;5051578;28;20025;-75
2022/02/14 09:28:43;;;;;;;9.57;2.80;;;9.70;62.90;;;;;;5054009;28;20378;-74
2022/02/14 09:31:09;;;;;;;9.65;2.97;;;9.90;62.30;;;;;;5054168;28;20082;-75
2022/02/14 09:33:34;;;;;;;9.30;2.63;;;10.00;61.70;;;;;;5053329;28;20492;-75
2022/02/14 09:36:00;;;;;;;5.20;1.98;;;10.20;61.60;;;;;;5053039;28;20039;-75
2022/02/14 09:38:26;;;;;;;8.82;3.03;;;10.40;61.60;;;;;;5053377;28;20029;-76
2022/02/14 09:40:54;;;;;;;11.27;3.28;;;10.70;60.30;;;;;;5051834;28;20051;-75
2022/02/14 09:43:20;;;;;;;9.60;3.13;;;10.90;60.80;;;;;;5053462;28;20028;-76
2022/02/14 09:45:46;;;;;;;7.00;2.85;;;11.00;60.50;;;;;;5052873;28;20025;-74
2022/02/14 09:48:13;;;;;;;4.75;1.95;;;11.20;60.00;;;;;;5060558;28;20033;-75
2022/02/14 09:50:41;;;;;;;6.82;2.38;;;11.30;60.00;;;;;;5053200;28;20040;-75
2022/02/14 09:53:09;;;;;;;5.97;1.95;;;11.50;59.00;;;;;;5052683;28;20025;-75
2022/02/14 09:55:35;;;;;;;7.78;2.30;;;11.60;59.00;;;;;;5053302;28;20023;-74
2022/02/14 09:58:01;;;;;;;6.43;2.40;;;11.70;58.50;;;;;;5051890;28;20055;-76
2022/02/14 10:00:27;;;;;;;6.60;2.20;;;11.80;58.40;;;;;;5065138;28;20469;-75
2022/02/14 10:03:16;;;;;;;6.95;2.10;;;11.90;57.60;;;;;;5052280;28;20025;-75
2022/02/14 10:05:50;;;;;;;4.82;2.10;;;12.00;57.80;;;;;;5053067;28;20031;-75
2022/02/14 10:08:21;;;;;;;8.52;2.50;;;12.00;58.40;;;;;;5052480;28;20397;-75
2022/02/14 10:10:48;;;;;;;7.38;2.55;;;12.00;58.30;;;;;;5052233;28;20025;-75
2022/02/14 10:13:29;;;;;;;8.43;2.05;;;11.90;58.80;;;;;;5052485;28;20036;-75
2022/02/14 10:15:56;;;;;;;7.40;2.13;;;11.90;59.60;;;;;;5049748;28;20028;-75
2022/02/14 10:18:35;;;;;;;10.18;2.47;;;11.80;59.60;;;;;;5051524;28;20040;-75
2022/02/14 10:21:27;;;;;;;10.35;2.63;;;11.90;60.00;;;;;;5051556;28;20029;-75
2022/02/14 10:24:10;;;;;;;6.50;2.53;;;11.90;59.50;;;;;;5050796;28;20040;-75
2022/02/14 10:26:42;;;;;;;9.88;2.40;;;12.00;60.20;;;;;;5051671;28;20486;-75
2022/02/14 10:29:09;;;;;;;9.43;2.55;;;12.10;60.30;;;;;;5051211;28;20105;-75
2022/02/14 10:32:00;;;;;;;5.68;2.53;;;12.20;60.10;;;;;;5051887;28;20068;-74
2022/02/14 10:34:41;;;;;;;7.07;2.53;;;12.40;59.90;;;;;;5050959;28;20494;-75
2022/02/14 10:37:12;;;;;;;6.72;2.38;;;12.50;59.80;;;;;;5051089;28;20040;-75
2022/02/14 10:39:42;;;;;;;8.25;2.08;;;12.60;60.80;;;;;;5051688;28;20037;-75
2022/02/14 10:42:10;;;;;;;7.88;2.38;;;12.70;61.00;;;;;;5050415;28;20025;-74
2022/02/14 10:47:28;;;;;;;6.90;2.75;;;12.90;62.40;;;;;;5060334;28;20027;-73
2022/02/14 10:50:12;;;;;;;8.38;2.45;;;13.00;63.00;;;;;;5055716;28;20044;-74
2022/02/14 10:52:44;;;;;;;5.88;2.42;;;13.00;63.60;;;;;;5048547;28;20059;-76
2022/02/14 10:55:18;;;;;;;9.02;2.05;;;13.00;63.80;;;;;;5050157;28;20032;-76
2022/02/14 10:57:46;;;;;;;6.43;2.22;;;13.10;64.60;;;;;;5047812;28;20119;-75
2022/02/14 11:00:18;;;;;;;6.25;2.08;;;13.20;64.10;;;;;;5051353;28;20028;-76
2022/02/14 11:02:45;;;;;;;5.93;2.38;;;;;;;;;;5052529;28;20040;-76
2022/02/14 11:05:13;;;;;;;7.95;1.90;;;13.30;63.40;;;;;;5049063;28;20056;-76
2022/02/14 11:07:39;;;;;;;7.13;2.20;;;13.40;64.20;;;;;;5056912;28;20025;-75
2022/02/14 11:10:09;;;;;;;8.10;2.10;;;13.50;64.60;;;;;;5062639;28;20025;-75
2022/02/14 11:12:38;;;;;;;4.03;1.90;;;13.60;64.30;;;;;;5071277;28;20033;-76
2022/02/14 11:15:06;;;;;;;6.70;2.65;;;13.60;64.10;;;;;;5071155;28;20059;-76
2022/02/14 11:17:34;;;;;;;9.90;2.63;;;13.60;64.90;;;;;;5072070;28;20033;-76
2022/02/14 11:20:05;;;;;;;9.63;2.80;;;13.70;64.30;;;;;;5059124;28;20040;-76
2022/02/14 11:22:37;;;;;;;9.23;2.55;;;13.70;64.50;;;;;;5052198;28;20025;-76
2022/02/14 11:25:26;;;;;;;6.20;2.30;;;13.70;65.10;;;;;;5049959;28;20040;-76
2022/02/14 11:28:10;;;;;;;8.02;1.60;;;13.70;65.50;;;;;;5051937;28;20037;-74
2022/02/14 11:30:35;;;;;;;8.65;1.63;;;13.70;66.00;;;;;;5052136;28;20036;-74
2022/02/14 11:33:19;;;;;;;5.43;1.42;;;13.80;66.00;;;;;;5051062;28;20033;-74
2022/02/14 11:36:08;;;;;;;2.17;1.42;;;13.70;66.60;;;;;;5051902;28;20029;-74
2022/02/14 11:38:49;;;;;;;5.43;1.57;;;13.70;67.20;;;;;;5051885;28;20040;-74
2022/02/14 11:41:33;;;;;;;;;;;13.80;66.90;;;;;;5052108;28;20106;-74
2022/02/14 11:44:11;;;;;;;2.35;1.20;;;13.80;67.50;;;;;;5050876;28;19904;-74
2022/02/14 11:46:42;;;;;;;5.38;1.60;;;13.80;67.70;;;;;;5056031;28;20028;-74
2022/02/14 11:49:08;;;;;;;6.68;1.55;;;13.80;67.50;;;;;;5051325;28;20116;-75
2022/02/14 11:51:55;;;;;;;5.97;1.33;;;13.70;68.10;;;;;;5051874;28;20060;-75
2022/02/14 11:54:31;;;;;;;5.38;1.60;;;13.60;68.70;;;;;;5051652;28;20067;-74
2022/02/14 11:57:21;;;;;;;7.80;1.67;;;13.50;69.20;;;;;;5051037;28;20045;-74
2022/02/14 11:59:46;;;;;;;2.90;1.40;;;13.50;69.20;;;;;;5051191;28;20132;-74
2022/02/14 12:02:13;;;;;;;5.97;1.40;;;13.40;70.40;;;;;;5050849;28;20039;-74
2022/02/14 12:04:45;;;;;;;3.90;1.70;;;13.40;70.80;;;;;;5051225;28;20027;-74
2022/02/14 12:07:17;;;;;;;3.70;1.50;;;13.40;70.50;;;;;;5049753;28;20095;-74
2022/02/14 12:09:58;;;;;;;5.30;1.45;;;13.40;71.00;;;;;;5050913;28;20051;-75
2022/02/14 12:12:39;;;;;;;5.00;1.40;;;13.40;69.90;;;;;;5051315;28;20057;-75
2022/02/14 12:20:37;;;;;;;6.18;1.55;;;13.30;71.20;;;;;;5055128;28;20044;-75
2022/02/14 12:23:08;;;;;;;4.20;1.63;;;13.20;71.50;;;;;;5053724;28;20041;-75
2022/02/14 12:25:35;;;;;;;9.52;1.83;;;13.30;72.10;;;;;;5053992;28;20029;-75
2022/02/14 12:28:08;;;;;;;6.20;1.70;;;13.40;72.80;;;;;;5053342;28;20029;-74
2022/02/14 12:30:34;;;;;;;12.88;2.78;;;13.30;73.00;;;;;;5054091;28;20040;-74
2022/02/14 12:33:08;;;;;;;4.18;1.40;;;13.30;73.60;;;;;;5053718;28;20029;-74
2022/02/14 12:35:39;;;;;;;4.55;1.23;;;13.40;74.20;;;;;;5054011;28;20528;-75
2022/02/14 12:38:06;;;;;;;5.60;1.50;;;13.40;74.30;;;;;;5054182;28;20071;-75
2022/02/14 12:40:50;;;;;;;4.18;1.25;;;13.40;74.30;;;;;;5054160;28;20116;-74
2022/02/14 12:43:33;;;;;;;5.80;1.30;;;13.30;74.70;;;;;;5054013;28;20091;-75
2022/02/14 12:46:23;;;;;;;7.30;1.55;;;13.40;75.30;;;;;;5053447;28;20108;-73
2022/02/14 12:48:51;;;;;;;4.95;1.38;;;13.40;75.70;;;;;;5054369;28;20068;-77
2022/02/14 12:51:22;;;;;;;3.92;1.20;;;13.40;76.00;;;;;;5053343;28;20118;-76
2022/02/14 12:54:06;;;;;;;4.75;1.52;;;13.30;76.00;;;;;;5054460;28;20155;-74
2022/02/14 12:56:34;;;;;;;5.80;1.25;;;13.50;76.10;;;;;;5034148;28;20434;-74
2022/02/14 12:59:07;;;;;;;2.30;1.25;;;13.50;76.10;;;;;;5034317;28;20122;-76
2022/02/14 13:01:38;;;;;;;5.22;1.25;;;13.60;75.10;;;;;;5053599;28;20155;-74
2022/02/14 13:04:06;;;;;;;2.00;1.30;;;13.70;75.10;;;;;;5052980;28;20044;-74
2022/02/14 13:06:35;;;;;;;4.55;1.35;;;13.70;75.10;;;;;;5053180;28;20475;-74
2022/02/14 13:09:01;;;;;;;4.03;1.60;;;13.60;75.40;;;;;;5052739;28;20036;-75